Time;durP1;ratioP1;P1;durP2;ratioP2;P2;SDS_P1;SDS_P2;PMS_P1;PMS_P2;Temp;Humidity;BMP_temperature;BMP_pressure;BME280_temperature;BME280_humidity;BME280_pressure;Samples;Min_cycle;Max_cycle;Signal;HPM_P1;HPM_P2
2022/01/25 00:24:23;;;;;;;89.72;35.58;;;64.80;2201.60;;;;;;4898002;29;20036;-85
2022/01/25 00:29:49;;;;;;;91.38;36.58;;;64.80;2201.60;;;;;;4896523;29;20082;-83
2022/01/25 00:32:17;;;;;;;99.78;38.58;;;64.80;2201.60;;;;;;4897949;29;20501;-84
2022/01/25 00:34:43;;;;;;;95.88;38.72;;;64.80;2201.60;;;;;;4897766;29;20031;-86
2022/01/25 00:37:09;;;;;;;88.90;37.85;;;64.80;2201.60;;;;;;4897840;29;20027;-81
2022/01/25 00:39:37;;;;;;;;;;;64.70;2201.60;;;;;;4902545;29;20052;-80
2022/01/25 00:42:05;;;;;;;86.82;37.53;;;64.70;2201.60;;;;;;4908349;29;19911;-76
2022/01/25 00:44:35;;;;;;;93.47;38.35;;;64.80;2201.60;;;;;;4906465;29;20017;-81
2022/01/25 00:47:02;;;;;;;94.50;37.13;;;64.90;2201.60;;;;;;4889337;29;20036;-79
2022/01/25 00:49:29;;;;;;;96.53;37.25;;;64.90;2201.60;;;;;;4906384;29;20076;-85
2022/01/25 00:54:33;;;;;;;;;;;64.90;2201.60;;;;;;4908825;29;20500;-86
2022/01/25 00:56:58;;;;;;;;;;;64.70;2201.60;;;;;;4906959;29;19950;-84
2022/01/25 00:59:30;;;;;;;86.50;33.25;;;64.90;2201.60;;;;;;4908722;29;19965;-84
2022/01/25 01:02:05;;;;;;;90.53;35.38;;;64.90;2201.60;;;;;;4907075;29;20037;-83
2022/01/25 01:04:32;;;;;;;94.22;35.38;;;64.90;2201.60;;;;;;4906835;29;20477;-81
2022/01/25 01:07:01;;;;;;;98.40;36.85;;;64.90;2201.60;;;;;;4907422;29;20025;-82
2022/01/25 01:09:29;;;;;;;86.72;35.38;;;89.70;2176.00;;;;;;4907845;29;20036;-85
2022/01/25 01:12:03;;;;;;;85.65;34.08;;;89.90;2176.00;;;;;;4906857;29;20036;-83
2022/01/25 01:44:19;;;;;;;89.25;35.05;;;90.40;2176.00;;;;;;4902093;29;20039;-79
2022/01/25 01:47:02;;;;;;;98.28;37.88;;;115.20;2176.00;;;;;;4900426;29;20048;-81
2022/01/25 01:49:38;;;;;;;97.80;37.55;;;115.20;2176.00;;;;;;4901917;29;20516;-80
2022/01/25 01:52:05;;;;;;;78.20;29.27;;;90.50;2176.00;;;;;;4902302;29;20032;-81
2022/01/25 01:54:31;;;;;;;91.85;36.40;;;90.50;2176.00;;;;;;4897292;29;20449;-79
2022/01/25 01:56:58;;;;;;;;;;;115.30;2176.00;;;;;;4887429;29;20028;-81
2022/01/25 01:59:23;;;;;;;73.95;28.63;;;115.20;2176.00;;;;;;4884116;29;20281;-79
2022/01/25 02:01:49;;;;;;;;;;;115.30;2176.00;;;;;;4903973;29;20049;-77
2022/01/25 02:04:17;;;;;;;92.22;34.05;;;115.30;2176.00;;;;;;4901007;29;19955;-79
2022/01/25 02:06:43;;;;;;;85.30;33.27;;;115.40;2176.00;;;;;;4904172;29;20112;-79
2022/01/25 02:09:09;;;;;;;;;;;90.50;2176.00;;;;;;4887724;29;20478;-81
2022/01/25 02:11:36;;;;;;;93.20;34.00;;;90.10;2176.00;;;;;;4911942;29;19911;-82
2022/01/25 02:14:06;;;;;;;99.72;36.33;;;90.20;2176.00;;;;;;4909228;29;20020;-83
2022/01/25 02:16:43;;;;;;;93.22;37.75;;;90.10;2176.00;;;;;;4910806;29;20020;-80
2022/01/25 02:24:44;;;;;;;80.45;33.17;;;90.20;2176.00;;;;;;4916971;29;20031;-81
2022/01/25 02:27:11;;;;;;;84.57;32.75;;;90.20;2176.00;;;;;;4910690;29;20035;-78
2022/01/25 02:29:37;;;;;;;86.63;33.30;;;90.20;2176.00;;;;;;4908073;29;20036;-75
2022/01/25 02:32:13;;;;;;;88.72;33.13;;;90.20;2176.00;;;;;;4909020;29;20027;-82
2022/01/25 02:34:38;;;;;;;71.95;33.65;;;90.10;2176.00;;;;;;4911264;29;20465;-82
2022/01/25 02:37:08;;;;;;;;;;;90.30;2176.00;;;;;;4909416;29;20035;-83
2022/01/25 02:39:36;;;;;;;91.30;32.78;;;90.20;2176.00;;;;;;4910069;29;19946;-80
2022/01/25 02:42:01;;;;;;;81.93;32.20;;;90.20;2176.00;;;;;;4892012;29;20383;-80
2022/01/25 02:44:29;;;;;;;;;;;90.10;2176.00;;;;;;4908315;29;20115;-85
2022/01/25 02:49:29;;;;;;;75.47;30.00;;;90.20;2176.00;;;;;;4909890;29;20035;-79
2022/01/25 02:51:55;;;;;;;89.15;33.63;;;90.50;2176.00;;;;;;4913321;29;20024;-80
2022/01/25 02:54:20;;;;;;;;;;;90.50;2176.00;;;;;;4911887;29;20038;-85
2022/01/25 02:56:47;;;;;;;87.57;33.33;;;90.30;2176.00;;;;;;4909306;29;19918;-84
2022/01/25 02:59:14;;;;;;;85.85;36.03;;;90.30;2176.00;;;;;;4909658;29;20020;-83
2022/01/25 03:01:41;;;;;;;75.53;31.67;;;90.10;2176.00;;;;;;4907345;29;20064;-81
2022/01/25 03:04:08;;;;;;;83.28;32.30;;;90.00;2176.00;;;;;;4909522;29;20144;-82
2022/01/25 03:06:35;;;;;;;75.43;31.55;;;89.80;2176.00;;;;;;4898970;29;20051;-84
2022/01/25 03:09:02;;;;;;;80.70;32.35;;;89.70;2176.00;;;;;;4893659;29;20016;-80
2022/01/25 03:11:28;;;;;;;71.93;32.42;;;89.70;2176.00;;;;;;4890935;29;20051;-83
2022/01/25 03:13:56;;;;;;;;;;;89.70;2176.00;;;;;;4908637;29;20025;-85
2022/01/25 03:16:34;;;;;;;79.32;31.75;;;89.70;2176.00;;;;;;4907114;29;19930;-83
2022/01/25 03:19:03;;;;;;;72.30;28.50;;;89.70;2176.00;;;;;;4894112;29;20119;-81
2022/01/25 03:23:57;;;;;;;72.70;32.83;;;64.90;2201.60;;;;;;4910543;29;20561;-84
2022/01/25 03:26:25;;;;;;;87.05;34.45;;;89.60;2201.60;;;;;;4910870;29;20028;-83
2022/01/25 03:28:54;;;;;;;76.07;31.88;;;64.90;2201.60;;;;;;4892681;29;20038;-84
2022/01/25 03:31:21;;;;;;;75.05;32.17;;;64.90;2201.60;;;;;;4909229;29;20043;-84
2022/01/25 03:33:47;;;;;;;67.35;29.70;;;64.70;2201.60;;;;;;4908920;29;20035;-82
2022/01/25 03:36:13;;;;;;;;;;;64.70;2201.60;;;;;;4907705;29;20417;-76
2022/01/25 03:38:40;;;;;;;59.40;26.58;;;64.60;2201.60;;;;;;4908173;29;19915;-79
2022/01/25 03:41:11;;;;;;;67.10;31.45;;;64.70;2201.60;;;;;;4906364;29;20048;-82
2022/01/25 03:43:37;;;;;;;70.35;28.58;;;64.60;2201.60;;;;;;4907265;29;20464;-86
2022/01/25 03:51:38;;;;;;;63.58;25.48;;;64.80;2201.60;;;;;;4890825;29;20040;-83
2022/01/25 03:54:04;;;;;;;;;;;64.80;2201.60;;;;;;4892214;29;20033;-84
2022/01/25 03:56:30;;;;;;;59.53;24.05;;;64.80;2201.60;;;;;;4886521;29;19959;-87
2022/01/25 03:58:55;;;;;;;;;;;64.80;2201.60;;;;;;4889135;29;20044;-86
2022/01/25 04:01:21;;;;;;;60.92;25.77;;;64.80;2201.60;;;;;;4885950;29;20047;-83
2022/01/25 04:06:36;;;;;;;100.32;38.63;;;64.90;2201.60;;;;;;4868235;29;20002;-80
2022/01/25 04:09:06;;;;;;;109.28;40.75;;;89.80;2176.00;;;;;;4869572;29;20045;-84
2022/01/25 04:11:33;;;;;;;101.65;39.25;;;89.60;2201.60;;;;;;4854649;29;20513;-83
2022/01/25 04:13:59;;;;;;;93.72;41.60;;;64.90;2201.60;;;;;;4869787;29;20037;-83
2022/01/25 04:16:40;;;;;;;;;;;64.80;2201.60;;;;;;4867351;29;20372;-81
2022/01/25 04:19:21;;;;;;;212.70;71.97;;;64.90;2201.60;;;;;;4869218;29;19915;-80
2022/01/25 04:27:15;;;;;;;133.25;49.90;;;64.90;2201.60;;;;;;4867202;29;20040;-84
2022/01/25 04:29:41;;;;;;;;;;;89.60;2201.60;;;;;;4867304;29;20041;-81
2022/01/25 04:32:07;;;;;;;92.15;36.58;;;89.60;2201.60;;;;;;4867217;29;19908;-84
2022/01/25 04:53:48;;;;;;;98.03;39.58;;;89.80;2176.00;;;;;;4908267;29;20031;-80
2022/01/25 04:56:34;;;;;;;83.40;36.10;;;89.80;2176.00;;;;;;4890376;29;20039;-82
2022/01/25 04:59:21;;;;;;;88.88;35.47;;;89.80;2176.00;;;;;;4907489;29;20025;-83
2022/01/25 05:01:49;;;;;;;74.93;31.58;;;89.70;2176.00;;;;;;4891117;29;20115;-85
2022/01/25 05:04:22;;;;;;;74.05;31.30;;;89.70;2176.00;;;;;;4909431;29;20025;-84
2022/01/25 05:06:51;;;;;;;80.95;30.50;;;89.70;2176.00;;;;;;4889160;29;20138;-86
2022/01/25 05:09:19;;;;;;;74.65;30.10;;;89.70;2176.00;;;;;;4908599;29;20123;-80
2022/01/25 05:11:48;;;;;;;90.65;37.05;;;89.70;2176.00;;;;;;4909222;29;20025;-85
2022/01/25 05:14:21;;;;;;;97.63;39.60;;;89.80;2176.00;;;;;;4892956;29;20042;-87
2022/01/25 05:16:53;;;;;;;98.25;40.33;;;89.80;2176.00;;;;;;4892373;29;20039;-83
2022/01/25 05:19:26;;;;;;;85.15;37.20;;;89.90;2176.00;;;;;;4895726;29;20374;-83
2022/01/25 05:24:40;;;;;;;71.20;28.17;;;90.00;2176.00;;;;;;4911966;29;20047;-85
2022/01/25 05:27:06;;;;;;;86.22;38.10;;;90.10;2176.00;;;;;;4894947;29;20028;-82
2022/01/25 05:29:32;;;;;;;80.80;35.83;;;90.10;2176.00;;;;;;4908792;29;20039;-84
2022/01/25 05:31:58;;;;;;;;;;;90.10;2176.00;;;;;;4913725;29;20466;-82
2022/01/25 05:34:24;;;;;;;68.63;27.77;;;90.10;2176.00;;;;;;4909614;29;20504;-83
2022/01/25 05:36:50;;;;;;;71.22;28.95;;;90.20;2176.00;;;;;;4909327;29;20020;-85
2022/01/25 05:39:21;;;;;;;;;;;90.30;2176.00;;;;;;4911223;29;20047;-80
2022/01/25 05:41:55;;;;;;;72.43;30.05;;;90.30;2176.00;;;;;;4908988;29;19970;-78
2022/01/25 05:47:13;;;;;;;66.70;30.33;;;90.30;2176.00;;;;;;4912808;29;20063;-83
2022/01/25 05:49:40;;;;;;;69.85;30.95;;;90.40;2176.00;;;;;;4912829;29;20028;-76
2022/01/25 05:52:10;;;;;;;77.53;32.30;;;115.20;2176.00;;;;;;4897088;29;20020;-79
2022/01/25 05:54:36;;;;;;;86.95;33.95;;;90.50;2176.00;;;;;;4912098;29;20044;-82
2022/01/25 05:57:03;;;;;;;96.35;39.35;;;90.50;2176.00;;;;;;4914695;29;20525;-83
2022/01/25 05:59:28;;;;;;;99.23;38.57;;;90.40;2176.00;;;;;;4903393;29;20124;-81
2022/01/25 06:01:54;;;;;;;;;;;90.50;2176.00;;;;;;4910799;29;20448;-83
2022/01/25 06:04:22;;;;;;;89.45;37.75;;;90.40;2176.00;;;;;;4893033;29;19975;-83
2022/01/25 06:06:47;;;;;;;94.00;37.00;;;90.40;2176.00;;;;;;4908764;29;20020;-79
2022/01/25 06:09:13;;;;;;;;;;;90.30;2176.00;;;;;;4905281;29;20109;-78
2022/01/25 06:11:39;;;;;;;82.95;32.63;;;90.30;2176.00;;;;;;4900734;29;19921;-84
2022/01/25 06:14:05;;;;;;;;;;;90.30;2176.00;;;;;;4901080;29;20037;-87
2022/01/25 06:16:31;;;;;;;80.25;30.92;;;90.30;2176.00;;;;;;4908528;29;19914;-85
2022/01/25 06:18:57;;;;;;;;;;;90.30;2176.00;;;;;;4911365;29;20028;-87
2022/01/25 06:21:23;;;;;;;66.15;27.52;;;90.30;2176.00;;;;;;4908562;29;20010;-86
2022/01/25 06:23:49;;;;;;;76.80;31.55;;;90.30;2176.00;;;;;;4910952;29;20040;-83
2022/01/25 06:26:15;;;;;;;;;;;90.20;2176.00;;;;;;4919642;29;20067;-77
2022/01/25 06:28:41;;;;;;;56.00;22.17;;;90.20;2176.00;;;;;;4919246;29;20359;-88
2022/01/25 06:31:08;;;;;;;;;;;90.30;2176.00;;;;;;4903078;29;20056;-84
2022/01/25 06:33:34;;;;;;;54.15;21.30;;;90.30;2176.00;;;;;;4916369;29;19982;-86
2022/01/25 06:36:00;;;;;;;78.57;34.67;;;90.00;2176.00;;;;;;4910175;29;20039;-78
2022/01/25 06:38:27;;;;;;;109.68;43.03;;;90.20;2176.00;;;;;;4908364;29;20053;-84
2022/01/25 06:40:53;;;;;;;95.82;40.65;;;90.30;2176.00;;;;;;4913493;29;20477;-84
2022/01/25 06:43:19;;;;;;;;;;;90.10;2176.00;;;;;;4918461;29;20027;-84
2022/01/25 06:45:54;;;;;;;75.22;29.42;;;90.10;2176.00;;;;;;4908779;29;19907;-84
2022/01/25 06:48:19;;;;;;;66.00;25.10;;;90.00;2176.00;;;;;;4907801;29;20016;-77
2022/01/25 06:50:45;;;;;;;;;;;90.10;2176.00;;;;;;4909466;29;20168;-77
2022/01/25 06:53:11;;;;;;;61.38;25.52;;;90.10;2176.00;;;;;;4907536;29;19908;-86
2022/01/25 06:55:36;;;;;;;;;;;90.00;2176.00;;;;;;4898942;29;20584;-84
2022/01/25 06:58:02;;;;;;;76.20;29.13;;;89.90;2176.00;;;;;;4903180;29;19918;-74
2022/01/25 07:00:28;;;;;;;;;;;90.00;2176.00;;;;;;4908801;29;20032;-88
2022/01/25 07:02:54;;;;;;;66.60;24.67;;;90.00;2176.00;;;;;;4909890;29;19915;-77
2022/01/25 07:05:19;;;;;;;;;;;90.00;2176.00;;;;;;4899780;29;20395;-84
2022/01/25 07:07:46;;;;;;;57.08;24.67;;;90.20;2176.00;;;;;;4899866;29;19912;-76
2022/01/25 07:10:13;;;;;;;81.30;29.80;;;90.10;2176.00;;;;;;4899547;29;20029;-83
2022/01/25 07:12:39;;;;;;;80.32;31.27;;;90.10;2176.00;;;;;;4904680;29;20031;-82
2022/01/25 07:15:06;;;;;;;84.30;35.67;;;90.00;2176.00;;;;;;4907608;29;20076;-86
2022/01/25 07:17:32;;;;;;;77.45;36.20;;;89.90;2176.00;;;;;;4914809;29;20039;-86
2022/01/25 07:19:58;;;;;;;;;;;89.80;2176.00;;;;;;4883052;29;20158;-87
2022/01/25 07:22:23;;;;;;;80.72;31.50;;;89.70;2176.00;;;;;;4886237;29;19933;-83
2022/01/25 07:24:49;;;;;;;;;;;89.60;2201.60;;;;;;4900817;29;20413;-78
2022/01/25 07:27:15;;;;;;;76.30;33.13;;;89.60;2201.60;;;;;;4890005;29;20279;-80
2022/01/25 07:29:41;;;;;;;84.53;32.80;;;64.60;2201.60;;;;;;4890446;29;20035;-83
2022/01/25 07:32:07;;;;;;;;;;;89.60;2201.60;;;;;;4909397;29;20021;-80
2022/01/25 07:34:32;;;;;;;81.80;35.03;;;89.60;2201.60;;;;;;4904842;29;19907;-90
2022/01/25 07:36:58;;;;;;;;;;;89.60;2201.60;;;;;;4906862;29;20496;-80
2022/01/25 07:39:26;;;;;;;92.15;40.15;;;89.80;2176.00;;;;;;4917693;29;19950;-80
2022/01/25 07:41:57;;;;;;;114.80;45.25;;;89.70;2176.00;;;;;;4909016;29;20043;-78
2022/01/25 07:44:27;;;;;;;116.97;45.40;;;89.70;2176.00;;;;;;4906744;29;20021;-85
2022/01/25 07:46:53;;;;;;;96.10;40.78;;;89.80;2176.00;;;;;;4914723;29;20105;-86
2022/01/25 07:49:19;;;;;;;108.40;45.55;;;90.00;2176.00;;;;;;4903359;29;20084;-86
2022/01/25 07:51:44;;;;;;;;;;;90.00;2176.00;;;;;;4906421;29;20036;-84
2022/01/25 07:54:10;;;;;;;137.55;53.00;;;90.00;2176.00;;;;;;4917436;29;20356;-86
2022/01/25 07:56:36;;;;;;;;;;;90.00;2176.00;;;;;;4918154;29;20024;-81
2022/01/25 07:59:02;;;;;;;114.47;44.30;;;90.20;2176.00;;;;;;4917526;29;20276;-79
2022/01/25 08:01:28;;;;;;;;;;;90.10;2176.00;;;;;;4917779;29;20062;-85
2022/01/25 08:03:54;;;;;;;121.03;47.67;;;90.00;2176.00;;;;;;4917451;29;19907;-85
2022/01/25 08:06:21;;;;;;;;;;;90.00;2176.00;;;;;;4900462;29;20107;-86
2022/01/25 08:08:47;;;;;;;100.53;42.63;;;89.80;2176.00;;;;;;4917556;29;19949;-76
2022/01/25 08:11:13;;;;;;;128.90;51.10;;;89.70;2176.00;;;;;;4917334;29;20032;-83
2022/01/25 08:13:46;;;;;;;;;;;89.60;2201.60;;;;;;4917659;29;20024;-77
2022/01/25 08:16:12;;;;;;;110.53;45.75;;;64.90;2201.60;;;;;;4917024;29;19907;-77
2022/01/25 08:18:38;;;;;;;;;;;64.80;2201.60;;;;;;4918091;29;20028;-87
2022/01/25 08:21:03;;;;;;;117.50;40.43;;;64.70;2201.60;;;;;;4917110;29;19919;-81
2022/01/25 08:23:29;;;;;;;;;;;89.70;2176.00;;;;;;4916399;29;20021;-82
2022/01/25 08:25:55;;;;;;;105.45;40.92;;;89.90;2176.00;;;;;;4907653;29;19987;-85
2022/01/25 08:28:21;;;;;;;;;;;89.60;2201.60;;;;;;4906557;29;20036;-84
2022/01/25 08:30:47;;;;;;;94.30;40.17;;;64.90;2201.60;;;;;;4898313;29;19911;-82
2022/01/25 08:33:13;;;;;;;92.72;36.58;;;64.90;2201.60;;;;;;4898276;29;20074;-89
2022/01/25 08:35:38;;;;;;;;;;;64.90;2201.60;;;;;;4898910;29;20498;-81
2022/01/25 08:38:04;;;;;;;89.72;33.80;;;89.60;2201.60;;;;;;4897742;29;20001;-87
2022/01/25 08:40:30;;;;;;;;;;;89.60;2201.60;;;;;;4897573;29;20045;-85
2022/01/25 08:42:56;;;;;;;148.43;56.97;;;89.60;2201.60;;;;;;4897990;29;19912;-82
2022/01/25 08:45:23;;;;;;;137.05;50.00;;;64.80;2201.60;;;;;;4898209;29;20032;-82
2022/01/25 08:47:48;;;;;;;;;;;64.80;2201.60;;;;;;4898341;29;20028;-76
2022/01/25 08:50:14;;;;;;;95.43;37.05;;;64.60;2201.60;;;;;;4881405;29;20324;-88
2022/01/25 08:52:41;;;;;;;;;;;64.20;2201.60;;;;;;4897752;29;20028;-86
2022/01/25 08:55:07;;;;;;;119.88;41.88;;;64.00;2201.60;;;;;;4897697;29;19964;-74
2022/01/25 08:57:33;;;;;;;121.18;47.10;;;64.10;2201.60;;;;;;4897956;29;20125;-88
2022/01/25 08:59:59;;;;;;;;;;;64.00;2201.60;;;;;;4898119;29;20186;-89
2022/01/25 09:02:24;;;;;;;117.70;48.42;;;39.20;2201.60;;;;;;4881321;29;20445;-88
2022/01/25 09:04:50;;;;;;;;;;;39.10;2201.60;;;;;;4881626;29;20123;-87
2022/01/25 09:07:16;;;;;;;100.10;40.42;;;39.00;2201.60;;;;;;4897900;29;19915;-80
2022/01/25 09:09:42;;;;;;;;;;;38.90;2201.60;;;;;;4898222;29;20033;-80
2022/01/25 09:12:09;;;;;;;120.20;46.38;;;38.90;2201.60;;;;;;4881251;29;19908;-83
2022/01/25 09:14:35;;;;;;;128.18;50.03;;;39.00;2201.60;;;;;;4897732;29;20029;-86
2022/01/25 09:17:01;;;;;;;;;;;38.90;2201.60;;;;;;4898222;29;20052;-85
2022/01/25 09:19:27;;;;;;;134.80;52.67;;;39.00;2201.60;;;;;;4897415;29;19911;-78
2022/01/25 09:21:52;;;;;;;;;;;39.10;2201.60;;;;;;4897813;29;20072;-84
2022/01/25 09:24:18;;;;;;;113.38;45.00;;;38.80;2201.60;;;;;;4897944;29;19915;-85
2022/01/25 09:26:44;;;;;;;;;;;38.70;2201.60;;;;;;4897997;29;20036;-81
2022/01/25 09:29:10;;;;;;;86.82;35.05;;;38.40;2201.60;;;;;;4897669;29;19923;-79
2022/01/25 09:31:35;;;;;;;;;;;13.60;2201.60;;;;;;4913849;29;20072;-84
2022/01/25 09:34:01;;;;;;;67.28;30.55;;;13.50;2201.60;;;;;;4916323;29;20352;-86
2022/01/25 09:36:27;;;;;;;;;;;13.40;2201.60;;;;;;4916601;29;20020;-79
2022/01/25 09:38:54;;;;;;;81.20;34.03;;;13.20;2201.60;;;;;;4916263;29;19919;-79
2022/01/25 09:41:20;;;;;;;68.20;31.10;;;13.30;2201.60;;;;;;4916223;29;20036;-75
2022/01/25 09:43:46;;;;;;;;;;;12.90;2201.60;;;;;;4916670;29;20077;-84
2022/01/25 09:46:12;;;;;;;90.82;39.05;;;0.40;2201.60;;;;;;4915167;29;19915;-84
2022/01/25 09:48:38;;;;;;;;;;;13.10;2201.60;;;;;;4910835;29;20107;-75
2022/01/25 09:51:07;;;;;;;95.55;41.28;;;13.20;2201.60;;;;;;4905790;29;19998;-84
2022/01/25 09:53:33;;;;;;;101.43;42.55;;;13.60;2201.60;;;;;;4908981;29;20421;-78
2022/01/25 09:55:59;;;;;;;;;;;13.50;2201.60;;;;;;4919149;29;20043;-81
2022/01/25 09:58:25;;;;;;;104.55;44.92;;;13.50;2201.60;;;;;;4911274;29;20042;-83
2022/01/25 10:00:56;;;;;;;;;;;13.20;2201.60;;;;;;4914688;29;20119;-79
2022/01/25 10:03:31;;;;;;;107.53;44.22;;;13.30;2201.60;;;;;;4919400;29;20360;-84
2022/01/25 10:06:00;;;;;;;104.97;46.10;;;13.00;2201.60;;;;;;4919780;29;20039;-86
2022/01/25 10:08:32;;;;;;;111.35;46.83;;;0.00;2201.60;;;;;;4916490;29;20124;-83
2022/01/25 10:11:00;;;;;;;114.90;47.90;;;0.30;2201.60;;;;;;4908824;29;20501;-86
2022/01/25 10:13:36;;;;;;;119.35;46.97;;;0.80;2201.60;;;;;;4906641;29;20024;-82
2022/01/25 10:16:05;;;;;;;101.03;46.30;;;0.90;2201.60;;;;;;4911732;29;20016;-87
2022/01/25 10:18:41;;;;;;;113.95;49.78;;;0.80;2201.60;;;;;;4919064;29;20032;-76
2022/01/25 10:21:19;;;;;;;92.82;41.65;;;0.90;2201.60;;;;;;4910915;29;20036;-77
2022/01/25 10:24:10;;;;;;;122.78;55.03;;;0.60;2201.60;;;;;;4910097;29;20020;-83
2022/01/25 10:26:39;;;;;;;134.07;58.95;;;0.30;2201.60;;;;;;4916346;29;20059;-88
2022/01/25 10:29:14;;;;;;;145.35;59.63;;;0.50;2201.60;;;;;;4919142;29;20032;-80
2022/01/25 10:31:53;;;;;;;136.35;59.65;;;0.40;2201.60;;;;;;4919087;29;20028;-74
2022/01/25 10:34:25;;;;;;;114.15;51.45;;;0.60;2201.60;;;;;;4918954;29;20036;-81
2022/01/25 10:36:52;;;;;;;135.75;57.38;;;25.90;2201.60;;;;;;4901693;29;20036;-90
2022/01/25 10:39:28;;;;;;;117.95;52.22;;;0.90;2201.60;;;;;;4916166;29;20056;-90
2022/01/25 10:42:12;;;;;;;102.00;42.97;;;26.10;2176.00;;;;;;4910564;29;20036;-82
2022/01/25 10:45:05;;;;;;;116.35;51.58;;;51.20;2150.40;;;;;;4909541;29;20021;-79
2022/01/25 10:47:45;;;;;;;122.45;53.67;;;26.10;2176.00;;;;;;4916892;29;20070;-84
2022/01/25 10:50:34;;;;;;;126.18;54.97;;;26.20;2150.40;;;;;;4918790;29;20024;-86
2022/01/25 10:53:15;;;;;;;129.98;56.45;;;26.40;2176.00;;;;;;4909582;29;20036;-82
2022/01/25 10:55:54;;;;;;;138.38;60.63;;;26.30;2176.00;;;;;;4911038;29;20032;-86
2022/01/25 10:58:21;;;;;;;114.57;54.47;;;51.20;2201.60;;;;;;4907697;29;20025;-72
2022/01/25 11:00:51;;;;;;;113.45;55.30;;;51.80;2124.80;;;;;;4913228;29;20489;-85
2022/01/25 11:03:30;;;;;;;129.57;58.70;;;51.60;2099.20;;;;;;4900770;29;20496;-74
2022/01/25 11:05:56;;;;;;;115.10;54.85;;;51.80;2124.80;;;;;;4898614;29;20053;-78
2022/01/25 11:08:25;;;;;;;142.13;62.13;;;51.90;2124.80;;;;;;4899231;29;20067;-73
2022/01/25 11:10:59;;;;;;;110.97;53.28;;;52.00;2099.20;;;;;;4905302;29;20056;-82
2022/01/25 11:15:54;;;;;;;111.45;54.47;;;51.40;2176.00;;;;;;4918342;29;20083;-85
2022/01/25 11:18:20;;;;;;;103.75;50.90;;;51.70;2176.00;;;;;;4910365;29;20678;-82
2022/01/25 11:20:49;;;;;;;96.13;40.60;;;51.70;2124.80;;;;;;4900827;29;20051;-81
2022/01/25 11:23:17;;;;;;;78.93;38.92;;;77.20;2048.00;;;;;;4912223;29;20020;-85
2022/01/25 11:25:48;;;;;;;86.85;42.63;;;77.60;1971.20;;;;;;4907909;29;20060;-85
2022/01/25 11:28:15;;;;;;;85.25;41.15;;;102.50;1920.00;;;;;;4895700;29;20036;-85
2022/01/25 11:30:42;;;;;;;89.47;43.35;;;102.80;1868.80;;;;;;4911709;29;20120;-82
2022/01/25 11:33:10;;;;;;;96.63;43.90;;;77.50;1945.60;;;;;;4909555;29;20103;-77
2022/01/25 11:35:37;;;;;;;115.72;55.70;;;77.70;1945.60;;;;;;4898756;29;20028;-80
2022/01/25 11:38:06;;;;;;;126.55;58.30;;;77.10;2022.40;;;;;;4916986;29;20059;-74
2022/01/25 11:40:38;;;;;;;111.40;51.58;;;76.80;2073.60;;;;;;4916714;29;20504;-75
2022/01/25 11:43:11;;;;;;;118.18;55.53;;;52.10;2099.20;;;;;;4908392;29;20035;-83
2022/01/25 11:45:41;;;;;;;107.68;51.92;;;76.90;2099.20;;;;;;4906421;29;20033;-78
2022/01/25 11:48:08;;;;;;;107.40;49.88;;;77.30;2048.00;;;;;;4903747;29;20025;-74
2022/01/25 11:50:36;;;;;;;108.43;52.28;;;77.20;2048.00;;;;;;4881952;29;20036;-88
2022/01/25 11:53:07;;;;;;;121.10;58.08;;;51.80;2124.80;;;;;;4898813;29;20024;-83
2022/01/25 11:55:47;;;;;;;124.38;56.22;;;51.70;2176.00;;;;;;4881932;29;20040;-81
2022/01/25 11:58:27;;;;;;;130.93;62.60;;;51.60;2176.00;;;;;;4908611;29;20488;-77
2022/01/25 12:00:59;;;;;;;102.50;49.15;;;51.50;2227.20;;;;;;4905208;29;20047;-79
2022/01/25 12:03:40;;;;;;;93.57;43.35;;;51.70;2227.20;;;;;;4906559;29;20029;-79
2022/01/25 12:06:12;;;;;;;89.30;41.67;;;76.90;2124.80;;;;;;4902740;29;20122;-79
2022/01/25 12:11:40;;;;;;;84.15;37.28;;;77.30;1996.80;;;;;;4910295;29;20041;-82
2022/01/25 12:14:13;;;;;;;69.60;34.95;;;77.40;1971.20;;;;;;4908323;29;20503;-84
2022/01/25 12:16:43;;;;;;;76.45;38.75;;;102.40;1945.60;;;;;;4912453;29;20385;-80
2022/01/25 12:19:12;;;;;;;84.82;42.90;;;102.60;1920.00;;;;;;4907971;29;20024;-78
2022/01/25 12:21:51;;;;;;;99.65;47.63;;;102.60;1920.00;;;;;;4906238;29;20115;-84
2022/01/25 12:24:24;;;;;;;91.50;45.90;;;102.80;1920.00;;;;;;4907109;29;20040;-80
2022/01/25 12:27:06;;;;;;;67.07;33.75;;;102.90;1894.40;;;;;;4909517;29;20064;-84
2022/01/25 12:29:43;;;;;;;70.00;36.90;;;103.00;1868.80;;;;;;4911199;29;20020;-83
2022/01/25 12:32:24;;;;;;;60.83;28.85;;;103.00;1792.00;;;;;;4899845;29;20040;-80
2022/01/25 12:35:04;;;;;;;54.22;28.13;;;103.00;1792.00;;;;;;4908723;29;20024;-83
2022/01/25 12:40:26;;;;;;;59.75;30.02;;;102.80;1792.00;;;;;;4905621;29;20083;-84
2022/01/25 12:43:01;;;;;;;55.63;28.27;;;102.50;1817.60;;;;;;4909007;29;20037;-86
2022/01/25 12:45:30;;;;;;;59.85;28.98;;;102.40;1817.60;;;;;;4905576;29;20110;-80
2022/01/25 12:47:59;;;;;;;61.95;28.95;;;77.70;1843.20;;;;;;4906379;29;20029;-84
2022/01/25 12:50:27;;;;;;;59.90;31.33;;;102.50;1843.20;;;;;;4908353;29;20025;-87
2022/01/25 12:52:53;;;;;;;37.63;18.58;;;102.50;1843.20;;;;;;4905408;29;20035;-82
2022/01/25 12:55:36;;;;;;;44.10;22.52;;;102.50;1817.60;;;;;;4906685;29;20032;-79
2022/01/25 12:58:03;;;;;;;47.75;24.48;;;102.50;1817.60;;;;;;4905898;29;20043;-76
2022/01/25 13:00:41;;;;;;;42.00;22.20;;;102.40;1792.00;;;;;;4913434;29;20068;-78
2022/01/25 13:03:23;;;;;;;32.55;19.35;;;102.60;1792.00;;;;;;4904576;29;20040;-79
2022/01/25 13:05:55;;;;;;;34.53;16.42;;;102.60;1792.00;;;;;;4890988;29;20020;-75
2022/01/25 13:08:33;;;;;;;37.45;19.55;;;77.40;1817.60;;;;;;4906085;29;20032;-80
2022/01/25 13:11:19;;;;;;;28.15;15.07;;;77.70;1817.60;;;;;;4907469;29;20028;-87
2022/01/25 13:13:58;;;;;;;30.40;16.23;;;77.70;1843.20;;;;;;4888279;29;20031;-76
2022/01/25 13:16:53;;;;;;;36.97;18.25;;;77.60;1843.20;;;;;;4904181;29;20029;-76
2022/01/25 13:19:22;;;;;;;39.80;21.40;;;77.40;1843.20;;;;;;4909334;29;20031;-74
2022/01/25 13:21:59;;;;;;;38.60;18.33;;;77.70;1843.20;;;;;;4905012;29;20497;-88
2022/01/25 13:24:31;;;;;;;42.28;20.30;;;77.70;1868.80;;;;;;4905759;29;20020;-88
2022/01/25 13:26:58;;;;;;;34.92;16.90;;;77.70;1817.60;;;;;;4897667;29;20034;-76
2022/01/25 13:32:27;;;;;;;32.30;15.90;;;77.50;1817.60;;;;;;4907028;29;20051;-89
2022/01/25 13:35:14;;;;;;;38.25;18.95;;;77.40;1817.60;;;;;;4910205;29;20070;-82
2022/01/25 13:37:41;;;;;;;32.65;16.00;;;77.40;1817.60;;;;;;4901891;29;20043;-74
2022/01/25 13:40:09;;;;;;;38.50;18.60;;;77.50;1843.20;;;;;;4908605;29;20040;-85
2022/01/25 13:42:55;;;;;;;36.13;17.80;;;77.40;1843.20;;;;;;4907957;29;20557;-89
2022/01/25 13:48:08;;;;;;;35.45;19.17;;;77.50;1843.20;;;;;;4907672;29;20047;-73
2022/01/25 13:50:36;;;;;;;252.43;87.45;;;77.60;1843.20;;;;;;4906818;29;20119;-84
2022/01/25 13:53:03;;;;;;;48.75;21.38;;;77.70;1868.80;;;;;;4906720;29;20112;-82
2022/01/25 13:55:29;;;;;;;38.08;18.65;;;77.70;1843.20;;;;;;4900315;29;20032;-89
2022/01/25 13:57:55;;;;;;;36.92;17.77;;;77.60;1817.60;;;;;;4908857;29;20052;-81
2022/01/25 14:00:22;;;;;;;33.88;17.10;;;77.70;1817.60;;;;;;4893852;29;20071;-82
2022/01/25 14:02:53;;;;;;;39.88;19.35;;;77.70;1817.60;;;;;;4909663;29;20032;-78
2022/01/25 14:05:20;;;;;;;38.30;18.55;;;77.60;1843.20;;;;;;4893987;29;20478;-87
2022/01/25 14:07:50;;;;;;;37.08;17.98;;;77.70;1843.20;;;;;;4891892;29;20036;-84
2022/01/25 14:10:22;;;;;;;33.15;17.17;;;77.70;1843.20;;;;;;4907545;29;20111;-84
2022/01/25 14:23:53;;;;;;;89.43;41.55;;;76.90;2176.00;;;;;;4909840;29;20030;-88
2022/01/25 14:26:20;;;;;;;79.72;37.10;;;76.90;2201.60;;;;;;4895880;29;20115;-76
2022/01/25 14:28:54;;;;;;;76.28;35.03;;;77.00;2201.60;;;;;;4910468;29;20024;-84
2022/01/25 14:31:24;;;;;;;69.88;35.00;;;77.20;2150.40;;;;;;4910350;29;20107;-83
2022/01/25 14:33:56;;;;;;;80.63;36.38;;;77.30;2124.80;;;;;;4909663;29;20021;-85
2022/01/25 14:36:24;;;;;;;79.10;39.47;;;77.40;2099.20;;;;;;4916631;29;20059;-75
2022/01/25 14:38:52;;;;;;;72.75;34.95;;;77.10;2176.00;;;;;;4910611;29;20056;-87
2022/01/25 14:41:37;;;;;;;70.95;33.80;;;77.00;2150.40;;;;;;4890836;29;20087;-86
2022/01/25 14:44:22;;;;;;;78.60;33.97;;;52.00;2227.20;;;;;;4910248;29;20024;-88
2022/01/25 14:46:52;;;;;;;72.88;34.70;;;51.70;2227.20;;;;;;4909782;29;20016;-83